sensor_id;sensor_type;location;lat;lon;timestamp;P1;durP1;ratioP1;P2;durP2;ratioP2
27618;SDS011;15039;50.830;4.730;2023-06-14T00:00:02;3.55;;;2.97;;
27618;SDS011;15039;50.830;4.730;2023-06-14T00:02:29;3.38;;;3.00;;
27618;SDS011;15039;50.830;4.730;2023-06-14T00:04:54;6.50;;;2.65;;
27618;SDS011;15039;50.830;4.730;2023-06-14T00:07:22;8.85;;;3.78;;
27618;SDS011;15039;50.830;4.730;2023-06-14T00:10:03;4.63;;;3.13;;
27618;SDS011;15039;50.830;4.730;2023-06-14T00:12:30;3.65;;;2.90;;
27618;SDS011;15039;50.830;4.730;2023-06-14T00:14:56;5.35;;;3.15;;
27618;SDS011;15039;50.830;4.730;2023-06-14T00:17:22;3.25;;;2.72;;
27618;SDS011;15039;50.830;4.730;2023-06-14T00:19:48;6.25;;;3.50;;
27618;SDS011;15039;50.830;4.730;2023-06-14T00:22:14;10.38;;;3.05;;
27618;SDS011;15039;50.830;4.730;2023-06-14T00:24:40;3.42;;;3.10;;
27618;SDS011;15039;50.830;4.730;2023-06-14T00:27:06;5.43;;;2.60;;
27618;SDS011;15039;50.830;4.730;2023-06-14T00:29:32;5.18;;;3.20;;
27618;SDS011;15039;50.830;4.730;2023-06-14T00:31:57;5.60;;;3.10;;
27618;SDS011;15039;50.830;4.730;2023-06-14T00:34:23;5.00;;;3.20;;
27618;SDS011;15039;50.830;4.730;2023-06-14T00:36:49;6.05;;;2.92;;
27618;SDS011;15039;50.830;4.730;2023-06-14T00:39:14;6.00;;;3.60;;
27618;SDS011;15039;50.830;4.730;2023-06-14T00:41:40;3.90;;;3.45;;
27618;SDS011;15039;50.830;4.730;2023-06-14T00:44:06;7.25;;;3.03;;
27618;SDS011;15039;50.830;4.730;2023-06-14T00:46:31;5.20;;;3.13;;
27618;SDS011;15039;50.830;4.730;2023-06-14T00:48:57;3.45;;;3.15;;
27618;SDS011;15039;50.830;4.730;2023-06-14T00:51:25;3.85;;;3.45;;
27618;SDS011;15039;50.830;4.730;2023-06-14T00:53:52;5.47;;;3.38;;
27618;SDS011;15039;50.830;4.730;2023-06-14T00:56:18;4.57;;;3.40;;
27618;SDS011;15039;50.830;4.730;2023-06-14T00:58:45;5.82;;;3.22;;
27618;SDS011;15039;50.830;4.730;2023-06-14T01:01:13;7.78;;;4.53;;
27618;SDS011;15039;50.830;4.730;2023-06-14T01:03:39;4.72;;;3.22;;
27618;SDS011;15039;50.830;4.730;2023-06-14T01:08:54;4.85;;;3.55;;
27618;SDS011;15039;50.830;4.730;2023-06-14T01:14:36;4.18;;;3.25;;
27618;SDS011;15039;50.830;4.730;2023-06-14T01:17:03;7.53;;;3.67;;
27618;SDS011;15039;50.830;4.730;2023-06-14T01:19:30;3.92;;;3.13;;
27618;SDS011;15039;50.830;4.730;2023-06-14T01:22:00;3.65;;;2.97;;
27618;SDS011;15039;50.830;4.730;2023-06-14T01:24:27;7.03;;;3.42;;
27618;SDS011;15039;50.830;4.730;2023-06-14T01:26:54;6.97;;;3.30;;
27618;SDS011;15039;50.830;4.730;2023-06-14T01:29:22;7.20;;;3.53;;
27618;SDS011;15039;50.830;4.730;2023-06-14T01:31:50;7.15;;;3.30;;
27618;SDS011;15039;50.830;4.730;2023-06-14T01:34:16;6.97;;;3.50;;
27618;SDS011;15039;50.830;4.730;2023-06-14T01:36:42;5.78;;;3.20;;
27618;SDS011;15039;50.830;4.730;2023-06-14T01:39:11;3.10;;;2.80;;
27618;SDS011;15039;50.830;4.730;2023-06-14T01:41:40;4.35;;;3.42;;
27618;SDS011;15039;50.830;4.730;2023-06-14T01:44:07;10.65;;;3.38;;
27618;SDS011;15039;50.830;4.730;2023-06-14T01:46:34;5.90;;;3.80;;
27618;SDS011;15039;50.830;4.730;2023-06-14T01:49:01;7.05;;;3.20;;
27618;SDS011;15039;50.830;4.730;2023-06-14T01:51:27;5.28;;;3.75;;
27618;SDS011;15039;50.830;4.730;2023-06-14T01:53:52;8.40;;;4.07;;
27618;SDS011;15039;50.830;4.730;2023-06-14T01:56:18;4.18;;;3.75;;
27618;SDS011;15039;50.830;4.730;2023-06-14T01:58:44;7.18;;;3.80;;
27618;SDS011;15039;50.830;4.730;2023-06-14T02:01:10;6.25;;;3.88;;
27618;SDS011;15039;50.830;4.730;2023-06-14T02:03:37;5.60;;;3.60;;
27618;SDS011;15039;50.830;4.730;2023-06-14T02:06:03;4.68;;;3.88;;
27618;SDS011;15039;50.830;4.730;2023-06-14T02:08:29;4.63;;;3.60;;
27618;SDS011;15039;50.830;4.730;2023-06-14T02:10:55;3.38;;;3.08;;
27618;SDS011;15039;50.830;4.730;2023-06-14T02:13:20;6.47;;;3.40;;
27618;SDS011;15039;50.830;4.730;2023-06-14T02:15:46;4.75;;;3.67;;
27618;SDS011;15039;50.830;4.730;2023-06-14T02:18:16;6.65;;;4.40;;
27618;SDS011;15039;50.830;4.730;2023-06-14T02:20:41;5.13;;;3.88;;
27618;SDS011;15039;50.830;4.730;2023-06-14T02:23:07;4.90;;;3.50;;
27618;SDS011;15039;50.830;4.730;2023-06-14T02:25:32;8.50;;;3.65;;
27618;SDS011;15039;50.830;4.730;2023-06-14T02:28:01;4.10;;;3.42;;
27618;SDS011;15039;50.830;4.730;2023-06-14T02:30:26;6.03;;;3.80;;
27618;SDS011;15039;50.830;4.730;2023-06-14T02:32:52;4.45;;;3.45;;
27618;SDS011;15039;50.830;4.730;2023-06-14T02:35:18;5.70;;;3.78;;
27618;SDS011;15039;50.830;4.730;2023-06-14T02:37:49;5.60;;;3.40;;
27618;SDS011;15039;50.830;4.730;2023-06-14T02:40:16;3.97;;;3.40;;
27618;SDS011;15039;50.830;4.730;2023-06-14T02:42:41;4.72;;;3.78;;
27618;SDS011;15039;50.830;4.730;2023-06-14T02:45:07;7.50;;;3.78;;
27618;SDS011;15039;50.830;4.730;2023-06-14T02:47:33;5.22;;;3.50;;
27618;SDS011;15039;50.830;4.730;2023-06-14T02:49:59;5.88;;;3.85;;
27618;SDS011;15039;50.830;4.730;2023-06-14T02:52:24;7.32;;;4.10;;
27618;SDS011;15039;50.830;4.730;2023-06-14T02:54:50;7.13;;;3.80;;
27618;SDS011;15039;50.830;4.730;2023-06-14T02:57:16;4.90;;;3.92;;
27618;SDS011;15039;50.830;4.730;2023-06-14T02:59:41;5.00;;;3.75;;
27618;SDS011;15039;50.830;4.730;2023-06-14T03:02:07;4.53;;;3.72;;
27618;SDS011;15039;50.830;4.730;2023-06-14T03:04:33;7.68;;;4.03;;
27618;SDS011;15039;50.830;4.730;2023-06-14T03:07:02;6.32;;;3.58;;
27618;SDS011;15039;50.830;4.730;2023-06-14T03:09:37;4.50;;;3.95;;
27618;SDS011;15039;50.830;4.730;2023-06-14T03:12:05;7.47;;;4.15;;
27618;SDS011;15039;50.830;4.730;2023-06-14T03:14:32;7.25;;;3.92;;
27618;SDS011;15039;50.830;4.730;2023-06-14T03:16:58;6.75;;;4.10;;
27618;SDS011;15039;50.830;4.730;2023-06-14T03:19:25;6.65;;;4.35;;
27618;SDS011;15039;50.830;4.730;2023-06-14T03:21:51;6.68;;;4.00;;
27618;SDS011;15039;50.830;4.730;2023-06-14T03:24:18;5.22;;;4.05;;
27618;SDS011;15039;50.830;4.730;2023-06-14T03:26:44;6.65;;;3.60;;
27618;SDS011;15039;50.830;4.730;2023-06-14T03:29:10;5.90;;;4.10;;
27618;SDS011;15039;50.830;4.730;2023-06-14T03:31:36;7.47;;;4.40;;
27618;SDS011;15039;50.830;4.730;2023-06-14T03:34:06;5.45;;;4.15;;
27618;SDS011;15039;50.830;4.730;2023-06-14T03:36:31;5.70;;;3.63;;
27618;SDS011;15039;50.830;4.730;2023-06-14T03:38:58;8.13;;;4.57;;
27618;SDS011;15039;50.830;4.730;2023-06-14T03:41:24;6.07;;;3.83;;
27618;SDS011;15039;50.830;4.730;2023-06-14T03:43:51;10.55;;;4.55;;
27618;SDS011;15039;50.830;4.730;2023-06-14T03:46:16;7.53;;;4.97;;
27618;SDS011;15039;50.830;4.730;2023-06-14T03:48:42;5.22;;;4.68;;
27618;SDS011;15039;50.830;4.730;2023-06-14T03:51:08;5.43;;;4.10;;
27618;SDS011;15039;50.830;4.730;2023-06-14T03:53:35;8.15;;;4.03;;
27618;SDS011;15039;50.830;4.730;2023-06-14T03:56:01;6.60;;;4.45;;
27618;SDS011;15039;50.830;4.730;2023-06-14T03:58:26;8.70;;;4.22;;
27618;SDS011;15039;50.830;4.730;2023-06-14T04:00:53;7.30;;;4.60;;
27618;SDS011;15039;50.830;4.730;2023-06-14T04:03:18;5.53;;;4.20;;
27618;SDS011;15039;50.830;4.730;2023-06-14T04:05:44;6.55;;;4.25;;
27618;SDS011;15039;50.830;4.730;2023-06-14T04:08:14;5.97;;;4.47;;
27618;SDS011;15039;50.830;4.730;2023-06-14T04:10:40;8.95;;;4.10;;
27618;SDS011;15039;50.830;4.730;2023-06-14T04:13:06;4.65;;;4.15;;
27618;SDS011;15039;50.830;4.730;2023-06-14T04:15:32;5.88;;;4.13;;
27618;SDS011;15039;50.830;4.730;2023-06-14T04:17:58;6.07;;;4.18;;
27618;SDS011;15039;50.830;4.730;2023-06-14T04:20:24;10.10;;;4.68;;
27618;SDS011;15039;50.830;4.730;2023-06-14T04:22:50;9.32;;;4.90;;
27618;SDS011;15039;50.830;4.730;2023-06-14T04:25:18;7.28;;;4.55;;
27618;SDS011;15039;50.830;4.730;2023-06-14T04:27:44;5.20;;;4.38;;
27618;SDS011;15039;50.830;4.730;2023-06-14T04:30:12;8.68;;;4.65;;
27618;SDS011;15039;50.830;4.730;2023-06-14T04:32:38;8.02;;;4.40;;
27618;SDS011;15039;50.830;4.730;2023-06-14T04:35:05;6.90;;;4.70;;
27618;SDS011;15039;50.830;4.730;2023-06-14T04:37:32;5.78;;;4.72;;
27618;SDS011;15039;50.830;4.730;2023-06-14T04:40:05;9.27;;;4.70;;
27618;SDS011;15039;50.830;4.730;2023-06-14T04:42:32;6.10;;;4.57;;
27618;SDS011;15039;50.830;4.730;2023-06-14T04:44:59;6.50;;;3.90;;
27618;SDS011;15039;50.830;4.730;2023-06-14T04:47:25;6.97;;;4.57;;
27618;SDS011;15039;50.830;4.730;2023-06-14T04:49:54;9.23;;;5.03;;
27618;SDS011;15039;50.830;4.730;2023-06-14T04:52:27;8.23;;;5.03;;
27618;SDS011;15039;50.830;4.730;2023-06-14T04:54:54;8.03;;;4.43;;
27618;SDS011;15039;50.830;4.730;2023-06-14T04:57:21;7.63;;;4.40;;
27618;SDS011;15039;50.830;4.730;2023-06-14T04:59:48;6.90;;;4.72;;
27618;SDS011;15039;50.830;4.730;2023-06-14T05:02:20;5.85;;;4.20;;
27618;SDS011;15039;50.830;4.730;2023-06-14T05:04:49;6.55;;;5.00;;
27618;SDS011;15039;50.830;4.730;2023-06-14T05:07:15;8.32;;;4.70;;
27618;SDS011;15039;50.830;4.730;2023-06-14T05:09:41;5.93;;;4.82;;
27618;SDS011;15039;50.830;4.730;2023-06-14T05:12:07;10.07;;;4.82;;
27618;SDS011;15039;50.830;4.730;2023-06-14T05:14:33;7.40;;;4.57;;
27618;SDS011;15039;50.830;4.730;2023-06-14T05:16:59;7.78;;;5.15;;
27618;SDS011;15039;50.830;4.730;2023-06-14T05:19:25;8.52;;;5.40;;
27618;SDS011;15039;50.830;4.730;2023-06-14T05:21:51;9.25;;;4.90;;
27618;SDS011;15039;50.830;4.730;2023-06-14T05:24:18;8.73;;;4.30;;
27618;SDS011;15039;50.830;4.730;2023-06-14T05:26:44;7.07;;;4.95;;
27618;SDS011;15039;50.830;4.730;2023-06-14T05:29:10;12.68;;;4.72;;
27618;SDS011;15039;50.830;4.730;2023-06-14T05:31:35;8.23;;;4.72;;
27618;SDS011;15039;50.830;4.730;2023-06-14T05:34:01;10.85;;;5.30;;
27618;SDS011;15039;50.830;4.730;2023-06-14T05:36:27;8.98;;;5.53;;
27618;SDS011;15039;50.830;4.730;2023-06-14T05:38:53;7.45;;;4.88;;
27618;SDS011;15039;50.830;4.730;2023-06-14T05:41:25;9.38;;;5.90;;
27618;SDS011;15039;50.830;4.730;2023-06-14T05:43:51;11.00;;;5.10;;
27618;SDS011;15039;50.830;4.730;2023-06-14T05:46:20;10.63;;;5.00;;
27618;SDS011;15039;50.830;4.730;2023-06-14T05:51:15;9.32;;;5.40;;
27618;SDS011;15039;50.830;4.730;2023-06-14T05:53:43;8.73;;;5.18;;
27618;SDS011;15039;50.830;4.730;2023-06-14T05:56:19;7.65;;;4.75;;
27618;SDS011;15039;50.830;4.730;2023-06-14T05:58:47;7.60;;;5.00;;
27618;SDS011;15039;50.830;4.730;2023-06-14T06:01:28;6.85;;;4.32;;
27618;SDS011;15039;50.830;4.730;2023-06-14T06:03:58;10.00;;;5.00;;
27618;SDS011;15039;50.830;4.730;2023-06-14T06:06:24;9.50;;;4.80;;
27618;SDS011;15039;50.830;4.730;2023-06-14T06:08:50;6.88;;;4.30;;
27618;SDS011;15039;50.830;4.730;2023-06-14T06:11:15;8.25;;;4.80;;
27618;SDS011;15039;50.830;4.730;2023-06-14T06:13:42;6.88;;;4.57;;
27618;SDS011;15039;50.830;4.730;2023-06-14T06:18:37;6.82;;;4.30;;
27618;SDS011;15039;50.830;4.730;2023-06-14T06:21:03;5.88;;;4.30;;
27618;SDS011;15039;50.830;4.730;2023-06-14T06:23:31;8.07;;;4.53;;
27618;SDS011;15039;50.830;4.730;2023-06-14T06:25:57;6.07;;;4.45;;
27618;SDS011;15039;50.830;4.730;2023-06-14T06:28:35;6.60;;;4.47;;
27618;SDS011;15039;50.830;4.730;2023-06-14T06:31:17;6.15;;;4.07;;
27618;SDS011;15039;50.830;4.730;2023-06-14T06:33:43;5.93;;;4.72;;
27618;SDS011;15039;50.830;4.730;2023-06-14T06:36:21;5.85;;;3.97;;
27618;SDS011;15039;50.830;4.730;2023-06-14T06:38:47;8.63;;;4.07;;
27618;SDS011;15039;50.830;4.730;2023-06-14T06:41:13;8.82;;;4.30;;
27618;SDS011;15039;50.830;4.730;2023-06-14T06:43:39;7.40;;;4.18;;
27618;SDS011;15039;50.830;4.730;2023-06-14T06:46:05;7.78;;;4.30;;
27618;SDS011;15039;50.830;4.730;2023-06-14T06:48:33;7.57;;;4.43;;
27618;SDS011;15039;50.830;4.730;2023-06-14T06:51:00;6.13;;;4.53;;
27618;SDS011;15039;50.830;4.730;2023-06-14T06:53:26;5.70;;;3.67;;
27618;SDS011;15039;50.830;4.730;2023-06-14T06:55:55;7.32;;;4.38;;
27618;SDS011;15039;50.830;4.730;2023-06-14T06:58:21;11.20;;;4.95;;
27618;SDS011;15039;50.830;4.730;2023-06-14T07:00:49;5.40;;;3.83;;
27618;SDS011;15039;50.830;4.730;2023-06-14T07:03:16;6.85;;;4.30;;
27618;SDS011;15039;50.830;4.730;2023-06-14T07:05:43;7.45;;;4.65;;
27618;SDS011;15039;50.830;4.730;2023-06-14T07:08:08;7.20;;;4.00;;
27618;SDS011;15039;50.830;4.730;2023-06-14T07:10:37;7.78;;;4.57;;
27618;SDS011;15039;50.830;4.730;2023-06-14T07:13:03;10.88;;;4.95;;
27618;SDS011;15039;50.830;4.730;2023-06-14T07:15:57;8.80;;;4.70;;
27618;SDS011;15039;50.830;4.730;2023-06-14T07:18:26;6.85;;;4.25;;
27618;SDS011;15039;50.830;4.730;2023-06-14T07:20:52;6.63;;;4.63;;
27618;SDS011;15039;50.830;4.730;2023-06-14T07:23:19;7.00;;;4.43;;
27618;SDS011;15039;50.830;4.730;2023-06-14T07:25:45;4.05;;;3.65;;
27618;SDS011;15039;50.830;4.730;2023-06-14T07:28:11;6.85;;;4.05;;
27618;SDS011;15039;50.830;4.730;2023-06-14T07:30:37;7.85;;;4.45;;
27618;SDS011;15039;50.830;4.730;2023-06-14T07:33:02;6.45;;;3.67;;
27618;SDS011;15039;50.830;4.730;2023-06-14T07:35:28;9.98;;;4.05;;
27618;SDS011;15039;50.830;4.730;2023-06-14T07:37:54;8.90;;;4.90;;
27618;SDS011;15039;50.830;4.730;2023-06-14T07:40:20;6.20;;;3.90;;
27618;SDS011;15039;50.830;4.730;2023-06-14T07:42:45;6.65;;;3.85;;
27618;SDS011;15039;50.830;4.730;2023-06-14T07:45:13;4.22;;;3.45;;
27618;SDS011;15039;50.830;4.730;2023-06-14T07:47:39;7.10;;;3.95;;
27618;SDS011;15039;50.830;4.730;2023-06-14T07:50:04;6.13;;;3.60;;
27618;SDS011;15039;50.830;4.730;2023-06-14T07:52:31;5.22;;;3.60;;
27618;SDS011;15039;50.830;4.730;2023-06-14T07:54:56;5.63;;;4.03;;
27618;SDS011;15039;50.830;4.730;2023-06-14T07:57:23;6.65;;;3.40;;
27618;SDS011;15039;50.830;4.730;2023-06-14T07:59:48;9.88;;;3.65;;
27618;SDS011;15039;50.830;4.730;2023-06-14T08:02:15;5.82;;;3.45;;
27618;SDS011;15039;50.830;4.730;2023-06-14T08:04:41;8.10;;;3.53;;
27618;SDS011;15039;50.830;4.730;2023-06-14T08:07:07;4.60;;;3.30;;
27618;SDS011;15039;50.830;4.730;2023-06-14T08:09:33;7.43;;;4.10;;
27618;SDS011;15039;50.830;4.730;2023-06-14T08:12:05;7.05;;;4.22;;
27618;SDS011;15039;50.830;4.730;2023-06-14T08:14:35;8.27;;;3.58;;
27618;SDS011;15039;50.830;4.730;2023-06-14T08:17:01;8.50;;;4.13;;
27618;SDS011;15039;50.830;4.730;2023-06-14T08:19:27;5.60;;;3.50;;
27618;SDS011;15039;50.830;4.730;2023-06-14T08:21:53;4.88;;;3.30;;
27618;SDS011;15039;50.830;4.730;2023-06-14T08:24:23;4.28;;;3.35;;
27618;SDS011;15039;50.830;4.730;2023-06-14T08:26:54;7.43;;;4.00;;
27618;SDS011;15039;50.830;4.730;2023-06-14T08:29:21;6.00;;;4.03;;
27618;SDS011;15039;50.830;4.730;2023-06-14T08:31:47;7.05;;;4.00;;
27618;SDS011;15039;50.830;4.730;2023-06-14T08:34:12;10.15;;;3.97;;
27618;SDS011;15039;50.830;4.730;2023-06-14T08:36:38;6.13;;;4.15;;
27618;SDS011;15039;50.830;4.730;2023-06-14T08:39:04;6.22;;;3.78;;
27618;SDS011;15039;50.830;4.730;2023-06-14T08:41:31;5.50;;;3.42;;
27618;SDS011;15039;50.830;4.730;2023-06-14T08:43:57;4.20;;;3.53;;
27618;SDS011;15039;50.830;4.730;2023-06-14T08:46:25;8.63;;;3.75;;
27618;SDS011;15039;50.830;4.730;2023-06-14T08:48:52;4.78;;;3.75;;
27618;SDS011;15039;50.830;4.730;2023-06-14T08:51:22;6.60;;;3.55;;
27618;SDS011;15039;50.830;4.730;2023-06-14T08:53:53;6.28;;;3.90;;
27618;SDS011;15039;50.830;4.730;2023-06-14T08:56:26;8.10;;;3.78;;
27618;SDS011;15039;50.830;4.730;2023-06-14T08:58:55;8.18;;;3.30;;
27618;SDS011;15039;50.830;4.730;2023-06-14T09:01:26;12.57;;;4.45;;
27618;SDS011;15039;50.830;4.730;2023-06-14T09:03:52;6.10;;;2.95;;
27618;SDS011;15039;50.830;4.730;2023-06-14T09:06:20;8.45;;;3.60;;
27618;SDS011;15039;50.830;4.730;2023-06-14T09:08:48;4.77;;;3.37;;
27618;SDS011;15039;50.830;4.730;2023-06-14T09:11:14;7.55;;;4.20;;
27618;SDS011;15039;50.830;4.730;2023-06-14T09:13:43;9.40;;;4.07;;
27618;SDS011;15039;50.830;4.730;2023-06-14T09:16:10;11.20;;;4.10;;
27618;SDS011;15039;50.830;4.730;2023-06-14T09:18:37;8.10;;;3.63;;
27618;SDS011;15039;50.830;4.730;2023-06-14T09:21:12;7.28;;;3.83;;
27618;SDS011;15039;50.830;4.730;2023-06-14T09:23:42;6.28;;;3.40;;
27618;SDS011;15039;50.830;4.730;2023-06-14T09:26:19;5.40;;;3.55;;
27618;SDS011;15039;50.830;4.730;2023-06-14T09:29:05;4.22;;;3.00;;
27618;SDS011;15039;50.830;4.730;2023-06-14T09:31:41;4.68;;;3.17;;
27618;SDS011;15039;50.830;4.730;2023-06-14T09:34:11;6.53;;;3.20;;
27618;SDS011;15039;50.830;4.730;2023-06-14T09:36:44;12.05;;;3.42;;
27618;SDS011;15039;50.830;4.730;2023-06-14T09:39:17;4.88;;;2.83;;
27618;SDS011;15039;50.830;4.730;2023-06-14T09:44:10;5.43;;;3.90;;
27618;SDS011;15039;50.830;4.730;2023-06-14T09:46:37;5.82;;;3.30;;
27618;SDS011;15039;50.830;4.730;2023-06-14T09:49:04;7.05;;;3.20;;
27618;SDS011;15039;50.830;4.730;2023-06-14T09:51:30;4.32;;;3.25;;
27618;SDS011;15039;50.830;4.730;2023-06-14T09:54:00;4.80;;;3.03;;
27618;SDS011;15039;50.830;4.730;2023-06-14T09:56:32;6.82;;;3.22;;
27618;SDS011;15039;50.830;4.730;2023-06-14T09:59:09;5.30;;;3.03;;
27618;SDS011;15039;50.830;4.730;2023-06-14T10:01:35;6.45;;;3.30;;
27618;SDS011;15039;50.830;4.730;2023-06-14T10:04:06;6.15;;;3.33;;
27618;SDS011;15039;50.830;4.730;2023-06-14T10:06:35;6.72;;;3.22;;
27618;SDS011;15039;50.830;4.730;2023-06-14T10:09:03;6.75;;;3.38;;
27618;SDS011;15039;50.830;4.730;2023-06-14T10:11:30;6.07;;;3.07;;
27618;SDS011;15039;50.830;4.730;2023-06-14T10:13:57;5.60;;;2.92;;
27618;SDS011;15039;50.830;4.730;2023-06-14T10:16:28;4.50;;;2.80;;
27618;SDS011;15039;50.830;4.730;2023-06-14T10:19:11;4.20;;;2.88;;
27618;SDS011;15039;50.830;4.730;2023-06-14T10:22:17;3.65;;;2.40;;
27618;SDS011;15039;50.830;4.730;2023-06-14T10:24:50;4.85;;;2.88;;
27618;SDS011;15039;50.830;4.730;2023-06-14T10:27:16;9.63;;;2.80;;
27618;SDS011;15039;50.830;4.730;2023-06-14T10:32:25;9.23;;;3.05;;
27618;SDS011;15039;50.830;4.730;2023-06-14T10:34:57;7.00;;;2.80;;
27618;SDS011;15039;50.830;4.730;2023-06-14T10:37:23;4.43;;;2.55;;
27618;SDS011;15039;50.830;4.730;2023-06-14T10:39:49;4.43;;;2.65;;
27618;SDS011;15039;50.830;4.730;2023-06-14T10:42:16;5.57;;;2.75;;
27618;SDS011;15039;50.830;4.730;2023-06-14T10:47:22;7.75;;;2.90;;
27618;SDS011;15039;50.830;4.730;2023-06-14T10:49:52;5.80;;;2.58;;
27618;SDS011;15039;50.830;4.730;2023-06-14T10:52:27;5.60;;;2.47;;
27618;SDS011;15039;50.830;4.730;2023-06-14T10:57:46;4.28;;;2.20;;
27618;SDS011;15039;50.830;4.730;2023-06-14T11:00:19;7.50;;;2.13;;
27618;SDS011;15039;50.830;4.730;2023-06-14T11:05:57;7.97;;;2.80;;
27618;SDS011;15039;50.830;4.730;2023-06-14T11:11:32;6.40;;;2.38;;
27618;SDS011;15039;50.830;4.730;2023-06-14T11:14:00;5.28;;;2.55;;
27618;SDS011;15039;50.830;4.730;2023-06-14T11:16:27;7.78;;;2.47;;
27618;SDS011;15039;50.830;4.730;2023-06-14T11:18:53;5.07;;;2.50;;
27618;SDS011;15039;50.830;4.730;2023-06-14T11:21:19;4.47;;;2.58;;
27618;SDS011;15039;50.830;4.730;2023-06-14T11:23:52;3.85;;;2.53;;
27618;SDS011;15039;50.830;4.730;2023-06-14T11:26:26;6.00;;;2.40;;
27618;SDS011;15039;50.830;4.730;2023-06-14T11:28:56;4.15;;;2.63;;
27618;SDS011;15039;50.830;4.730;2023-06-14T11:31:24;5.28;;;2.95;;
27618;SDS011;15039;50.830;4.730;2023-06-14T11:33:50;6.57;;;2.42;;
27618;SDS011;15039;50.830;4.730;2023-06-14T11:36:18;7.35;;;2.55;;
27618;SDS011;15039;50.830;4.730;2023-06-14T11:38:43;6.28;;;2.13;;
27618;SDS011;15039;50.830;4.730;2023-06-14T11:41:09;7.13;;;3.20;;
27618;SDS011;15039;50.830;4.730;2023-06-14T11:43:35;4.63;;;2.22;;
27618;SDS011;15039;50.830;4.730;2023-06-14T11:46:01;4.28;;;2.05;;
27618;SDS011;15039;50.830;4.730;2023-06-14T11:48:36;6.18;;;2.30;;
27618;SDS011;15039;50.830;4.730;2023-06-14T11:51:03;5.78;;;2.63;;
27618;SDS011;15039;50.830;4.730;2023-06-14T11:53:29;4.20;;;2.38;;
27618;SDS011;15039;50.830;4.730;2023-06-14T11:55:55;5.53;;;2.40;;
27618;SDS011;15039;50.830;4.730;2023-06-14T11:58:22;4.93;;;2.80;;
27618;SDS011;15039;50.830;4.730;2023-06-14T12:00:51;5.90;;;2.97;;
27618;SDS011;15039;50.830;4.730;2023-06-14T12:03:22;5.70;;;2.60;;
27618;SDS011;15039;50.830;4.730;2023-06-14T12:05:50;3.22;;;2.05;;
27618;SDS011;15039;50.830;4.730;2023-06-14T12:08:32;7.50;;;2.70;;
27618;SDS011;15039;50.830;4.730;2023-06-14T12:11:03;4.80;;;2.00;;
27618;SDS011;15039;50.830;4.730;2023-06-14T12:13:29;4.72;;;2.10;;
27618;SDS011;15039;50.830;4.730;2023-06-14T12:15:58;2.80;;;1.98;;
27618;SDS011;15039;50.830;4.730;2023-06-14T12:18:34;7.65;;;2.47;;
27618;SDS011;15039;50.830;4.730;2023-06-14T12:21:00;3.35;;;2.20;;
27618;SDS011;15039;50.830;4.730;2023-06-14T12:23:38;4.82;;;1.88;;
27618;SDS011;15039;50.830;4.730;2023-06-14T12:26:04;6.05;;;2.25;;
27618;SDS011;15039;50.830;4.730;2023-06-14T12:28:31;3.72;;;1.83;;
27618;SDS011;15039;50.830;4.730;2023-06-14T12:30:56;3.13;;;2.25;;
27618;SDS011;15039;50.830;4.730;2023-06-14T12:33:23;6.05;;;2.08;;
27618;SDS011;15039;50.830;4.730;2023-06-14T12:35:50;6.07;;;1.80;;
27618;SDS011;15039;50.830;4.730;2023-06-14T12:38:17;4.85;;;1.77;;
27618;SDS011;15039;50.830;4.730;2023-06-14T12:40:43;4.93;;;1.88;;
27618;SDS011;15039;50.830;4.730;2023-06-14T12:43:08;4.78;;;1.70;;
27618;SDS011;15039;50.830;4.730;2023-06-14T12:45:34;2.30;;;1.67;;
27618;SDS011;15039;50.830;4.730;2023-06-14T12:47:59;3.38;;;1.88;;
27618;SDS011;15039;50.830;4.730;2023-06-14T12:50:25;4.07;;;1.70;;
27618;SDS011;15039;50.830;4.730;2023-06-14T12:52:51;2.42;;;1.90;;
27618;SDS011;15039;50.830;4.730;2023-06-14T12:55:16;2.88;;;1.70;;
27618;SDS011;15039;50.830;4.730;2023-06-14T12:57:46;2.75;;;2.03;;
27618;SDS011;15039;50.830;4.730;2023-06-14T13:00:14;2.17;;;1.65;;
27618;SDS011;15039;50.830;4.730;2023-06-14T13:02:40;6.25;;;2.03;;
27618;SDS011;15039;50.830;4.730;2023-06-14T13:05:06;4.97;;;1.63;;
27618;SDS011;15039;50.830;4.730;2023-06-14T13:07:32;2.95;;;1.67;;
27618;SDS011;15039;50.830;4.730;2023-06-14T13:09:57;3.15;;;1.35;;
27618;SDS011;15039;50.830;4.730;2023-06-14T13:12:24;3.40;;;1.27;;
27618;SDS011;15039;50.830;4.730;2023-06-14T13:14:50;4.32;;;1.50;;
27618;SDS011;15039;50.830;4.730;2023-06-14T13:17:15;3.17;;;1.42;;
27618;SDS011;15039;50.830;4.730;2023-06-14T13:19:41;3.53;;;1.33;;
27618;SDS011;15039;50.830;4.730;2023-06-14T13:22:09;3.35;;;0.90;;
27618;SDS011;15039;50.830;4.730;2023-06-14T13:24:35;2.22;;;1.50;;
27618;SDS011;15039;50.830;4.730;2023-06-14T13:27:01;4.18;;;1.25;;
27618;SDS011;15039;50.830;4.730;2023-06-14T13:29:27;1.38;;;1.00;;
27618;SDS011;15039;50.830;4.730;2023-06-14T13:31:52;2.65;;;1.10;;
27618;SDS011;15039;50.830;4.730;2023-06-14T13:34:18;7.88;;;2.08;;
27618;SDS011;15039;50.830;4.730;2023-06-14T13:36:45;3.00;;;1.17;;
27618;SDS011;15039;50.830;4.730;2023-06-14T13:39:10;1.40;;;1.00;;
27618;SDS011;15039;50.830;4.730;2023-06-14T13:41:37;2.63;;;1.35;;
27618;SDS011;15039;50.830;4.730;2023-06-14T13:44:02;1.42;;;1.00;;
27618;SDS011;15039;50.830;4.730;2023-06-14T13:46:31;1.90;;;1.17;;
27618;SDS011;15039;50.830;4.730;2023-06-14T13:48:56;5.03;;;1.00;;
27618;SDS011;15039;50.830;4.730;2023-06-14T13:51:23;2.92;;;1.50;;
27618;SDS011;15039;50.830;4.730;2023-06-14T13:53:48;1.50;;;0.95;;
27618;SDS011;15039;50.830;4.730;2023-06-14T13:56:15;6.75;;;1.58;;
27618;SDS011;15039;50.830;4.730;2023-06-14T13:58:41;4.40;;;1.05;;
27618;SDS011;15039;50.830;4.730;2023-06-14T14:01:08;5.95;;;1.38;;
27618;SDS011;15039;50.830;4.730;2023-06-14T14:03:34;4.43;;;1.05;;
27618;SDS011;15039;50.830;4.730;2023-06-14T14:06:00;1.10;;;0.90;;
27618;SDS011;15039;50.830;4.730;2023-06-14T14:08:27;5.40;;;1.20;;
27618;SDS011;15039;50.830;4.730;2023-06-14T14:10:53;3.10;;;1.20;;
27618;SDS011;15039;50.830;4.730;2023-06-14T14:13:19;4.80;;;1.23;;
27618;SDS011;15039;50.830;4.730;2023-06-14T14:15:46;4.22;;;1.23;;
27618;SDS011;15039;50.830;4.730;2023-06-14T14:18:11;2.10;;;1.33;;
27618;SDS011;15039;50.830;4.730;2023-06-14T14:20:37;4.05;;;1.35;;
27618;SDS011;15039;50.830;4.730;2023-06-14T14:23:03;1.88;;;1.23;;
27618;SDS011;15039;50.830;4.730;2023-06-14T14:25:29;5.10;;;1.30;;
27618;SDS011;15039;50.830;4.730;2023-06-14T14:27:55;8.60;;;1.95;;
27618;SDS011;15039;50.830;4.730;2023-06-14T14:30:21;2.15;;;0.90;;
27618;SDS011;15039;50.830;4.730;2023-06-14T14:32:48;4.32;;;1.35;;
27618;SDS011;15039;50.830;4.730;2023-06-14T14:35:16;2.55;;;1.20;;
27618;SDS011;15039;50.830;4.730;2023-06-14T14:37:42;3.35;;;1.25;;
27618;SDS011;15039;50.830;4.730;2023-06-14T14:40:08;2.35;;;1.20;;
27618;SDS011;15039;50.830;4.730;2023-06-14T14:42:35;4.85;;;1.40;;
27618;SDS011;15039;50.830;4.730;2023-06-14T14:45:01;3.92;;;1.15;;
27618;SDS011;15039;50.830;4.730;2023-06-14T14:47:26;3.63;;;1.20;;
27618;SDS011;15039;50.830;4.730;2023-06-14T14:49:52;4.18;;;1.30;;
27618;SDS011;15039;50.830;4.730;2023-06-14T14:52:17;2.08;;;1.20;;
27618;SDS011;15039;50.830;4.730;2023-06-14T14:54:43;5.18;;;1.38;;
27618;SDS011;15039;50.830;4.730;2023-06-14T14:57:09;3.92;;;1.08;;
27618;SDS011;15039;50.830;4.730;2023-06-14T14:59:36;2.00;;;1.23;;
27618;SDS011;15039;50.830;4.730;2023-06-14T15:02:02;3.78;;;1.23;;
27618;SDS011;15039;50.830;4.730;2023-06-14T15:04:27;2.58;;;1.42;;
27618;SDS011;15039;50.830;4.730;2023-06-14T15:06:53;4.93;;;1.25;;
27618;SDS011;15039;50.830;4.730;2023-06-14T15:09:18;3.58;;;1.20;;
27618;SDS011;15039;50.830;4.730;2023-06-14T15:11:44;2.70;;;1.25;;
27618;SDS011;15039;50.830;4.730;2023-06-14T15:14:10;2.80;;;0.90;;
27618;SDS011;15039;50.830;4.730;2023-06-14T15:16:36;1.42;;;1.17;;